createdAt,value
2022-12-22T14:56:18.444Z,1.20
2022-12-22T14:58:46.955Z,0.90
2022-12-22T15:01:16.717Z,1.20
2022-12-22T15:03:44.699Z,1.03
2022-12-22T15:06:26.469Z,0.70
2022-12-22T15:09:13.339Z,1.40
2022-12-22T15:11:52.697Z,0.90
2022-12-22T15:14:34.931Z,0.87
2022-12-22T15:17:07.503Z,0.90
2022-12-22T15:19:36.207Z,0.90
2022-12-22T15:22:03.392Z,0.80
2022-12-22T15:24:30.062Z,0.80
2022-12-22T15:26:56.797Z,1.13
2022-12-22T15:29:23.528Z,0.60
2022-12-22T15:31:50.221Z,0.80
2022-12-22T15:34:28.916Z,0.87
2022-12-22T15:36:55.661Z,0.87
2022-12-22T15:39:23.317Z,0.87
2022-12-22T15:41:50.430Z,1.00
2022-12-22T15:44:17.209Z,0.87
2022-12-22T15:46:54.883Z,0.70
2022-12-22T15:49:25.280Z,0.73
2022-12-22T15:51:58.695Z,0.97
2022-12-22T15:54:27.051Z,0.80
2022-12-22T15:56:54.588Z,1.10
2022-12-22T15:59:25.618Z,1.10
2022-12-22T16:02:00.404Z,0.93
2022-12-22T16:04:28.628Z,0.70
2022-12-22T16:06:56.300Z,1.00
2022-12-22T16:09:28.770Z,1.10
2022-12-22T16:11:55.489Z,0.97
2022-12-22T16:14:22.964Z,0.87
2022-12-22T16:16:49.818Z,1.10
2022-12-22T16:19:18.028Z,1.00
2022-12-22T16:21:47.681Z,0.97
2022-12-22T16:24:31.462Z,0.80
2022-12-22T16:26:58.722Z,1.30
2022-12-22T16:29:26.728Z,1.10
2022-12-22T16:31:53.921Z,1.00
2022-12-22T16:34:20.654Z,1.00
2022-12-22T16:36:47.338Z,1.10
2022-12-22T16:39:13.995Z,1.07
2022-12-22T16:41:41.001Z,1.37
2022-12-22T16:44:09.782Z,1.13
2022-12-22T16:46:39.081Z,0.93
2022-12-22T16:49:09.127Z,1.07
2022-12-22T16:51:40.402Z,1.30
2022-12-22T16:54:09.555Z,1.97
2022-12-22T16:56:36.441Z,1.10
2022-12-22T16:59:04.513Z,1.30
2022-12-22T17:01:37.881Z,1.80
2022-12-22T17:04:11.813Z,1.50
2022-12-22T17:06:39.860Z,1.73
2022-12-22T17:09:15.456Z,2.83
2022-12-22T17:11:44.792Z,1.20
2022-12-22T17:14:34.147Z,1.10
2022-12-22T17:17:00.892Z,1.70
2022-12-22T17:19:27.564Z,1.60
2022-12-22T17:21:56.544Z,1.90
2022-12-22T17:24:28.186Z,2.40
2022-12-22T17:27:00.998Z,1.70
2022-12-22T17:29:28.164Z,2.07
2022-12-22T17:31:56.789Z,2.83
2022-12-22T17:34:23.823Z,5.63
2022-12-22T17:36:50.963Z,3.77
2022-12-22T17:39:20.534Z,1.90
2022-12-22T17:41:54.020Z,2.20
2022-12-22T17:44:24.696Z,1.80
2022-12-22T17:46:51.571Z,1.80
2022-12-22T17:49:19.974Z,1.83
2022-12-22T17:51:46.951Z,1.60
2022-12-22T17:54:25.599Z,1.63
2022-12-22T17:56:56.702Z,2.43
2022-12-22T17:59:23.443Z,1.77
2022-12-22T18:01:50.198Z,2.70
2022-12-22T18:04:16.994Z,1.83
2022-12-22T18:06:44.128Z,2.10
2022-12-22T18:09:23.828Z,1.97
2022-12-22T18:11:51.397Z,1.77
2022-12-22T18:14:23.465Z,1.83
2022-12-22T18:16:50.251Z,2.07
2022-12-22T18:19:17.017Z,2.77
2022-12-22T18:21:43.995Z,4.97
2022-12-22T18:24:18.832Z,4.47
2022-12-22T18:26:46.938Z,2.60
2022-12-22T18:29:15.406Z,2.60
2022-12-22T18:31:43.752Z,2.33
2022-12-22T18:34:11.610Z,2.47
2022-12-22T18:36:39.708Z,2.97
2022-12-22T18:39:09.407Z,2.60
2022-12-22T18:41:38.509Z,3.37
2022-12-22T18:44:06.399Z,3.17
2022-12-22T18:46:33.107Z,3.30
2022-12-22T18:49:05.407Z,4.03
2022-12-22T18:51:32.738Z,3.70
2022-12-22T18:53:59.353Z,4.20
2022-12-22T18:56:26.090Z,4.57
2022-12-22T18:58:52.796Z,3.47
2022-12-22T19:01:26.323Z,3.37
2022-12-22T19:03:55.663Z,5.03
2022-12-22T19:06:23.483Z,3.37
2022-12-22T19:08:51.623Z,3.77
2022-12-22T19:11:24.020Z,3.40
2022-12-22T19:13:51.790Z,4.57
2022-12-22T19:16:22.485Z,3.30
2022-12-22T19:18:49.246Z,3.50
2022-12-22T19:21:17.832Z,3.47
2022-12-22T19:23:45.427Z,3.83
2022-12-22T19:26:21.282Z,4.23
2022-12-22T19:28:49.222Z,4.77
2022-12-22T19:31:23.931Z,4.43
2022-12-22T19:33:51.473Z,4.50
2022-12-22T19:36:22.039Z,4.60
2022-12-22T19:38:53.672Z,4.50
2022-12-22T19:41:39.704Z,4.60
2022-12-22T19:44:17.861Z,4.30
2022-12-22T19:46:44.806Z,4.27
2022-12-22T19:49:16.461Z,4.33
2022-12-22T19:51:43.534Z,4.50
2022-12-22T19:54:10.231Z,3.70
2022-12-22T19:56:36.915Z,3.40
2022-12-22T19:59:07.102Z,3.30
2022-12-22T20:01:34.935Z,3.70
2022-12-22T20:04:01.681Z,4.20
2022-12-22T20:06:28.357Z,3.30
2022-12-22T20:09:01.241Z,3.70
2022-12-22T20:11:27.985Z,3.30
2022-12-22T20:13:54.878Z,3.20
2022-12-22T20:16:21.886Z,3.00
2022-12-22T20:18:48.511Z,3.23
2022-12-22T20:21:26.583Z,3.57
2022-12-22T20:23:55.061Z,3.50
2022-12-22T20:26:24.848Z,3.57
2022-12-22T20:28:53.345Z,3.50
2022-12-22T20:31:22.512Z,3.47
2022-12-22T20:33:49.520Z,3.47
2022-12-22T20:36:23.609Z,3.30
2022-12-22T20:38:54.436Z,3.00
2022-12-22T20:41:21.772Z,3.00
2022-12-22T20:43:49.009Z,3.27
2022-12-22T20:46:19.651Z,3.13
2022-12-22T20:48:50.379Z,3.20
2022-12-22T20:51:19.523Z,3.57
2022-12-22T20:53:47.457Z,3.00
2022-12-22T20:56:29.446Z,3.17
2022-12-22T20:58:57.573Z,3.27
2022-12-22T21:01:24.410Z,3.63
2022-12-22T21:03:51.596Z,3.50
2022-12-22T21:06:21.051Z,3.37
2022-12-22T21:08:47.768Z,4.40
2022-12-22T21:11:14.466Z,4.03
2022-12-22T21:13:41.065Z,3.47
2022-12-22T21:16:18.380Z,3.00
2022-12-22T21:18:45.334Z,3.80
2022-12-22T21:21:12.403Z,4.37
2022-12-22T21:23:39.130Z,4.00
2022-12-22T21:26:15.593Z,3.87
2022-12-22T21:28:42.264Z,3.40
2022-12-22T21:31:08.907Z,3.93
2022-12-22T21:33:35.592Z,3.70
2022-12-22T21:36:02.872Z,3.77
2022-12-22T21:38:32.963Z,3.87
2022-12-22T21:40:59.624Z,3.93
2022-12-22T21:43:26.255Z,3.50
2022-12-22T21:45:53.078Z,3.90
2022-12-22T21:48:20.715Z,3.83
2022-12-22T21:50:50.141Z,3.10
2022-12-22T21:53:22.439Z,4.10
2022-12-22T21:55:49.794Z,4.43
2022-12-22T21:58:16.736Z,4.13
2022-12-22T22:00:48.041Z,4.13
2022-12-22T22:03:15.929Z,3.77
2022-12-22T22:05:43.065Z,3.67
2022-12-22T22:08:11.837Z,4.00
2022-12-22T22:10:40.947Z,4.40
2022-12-22T22:13:07.896Z,3.30
2022-12-22T22:15:35.495Z,3.60
2022-12-22T22:18:06.900Z,4.00
2022-12-22T22:20:34.640Z,4.07
2022-12-22T22:23:01.482Z,3.33
2022-12-22T22:25:28.333Z,3.20
2022-12-22T22:27:59.664Z,3.53
2022-12-22T22:30:26.971Z,3.93
2022-12-22T22:32:54.905Z,3.20
2022-12-22T22:35:22.279Z,3.63
2022-12-22T22:37:52.325Z,3.90
2022-12-22T22:40:21.740Z,4.20
2022-12-22T22:42:48.613Z,3.30
2022-12-22T22:45:22.843Z,3.30
2022-12-22T22:47:51.362Z,3.00
2022-12-22T22:50:19.354Z,3.47
2022-12-22T22:52:46.255Z,3.57
2022-12-22T22:55:14.215Z,3.00
2022-12-22T22:57:42.310Z,3.13
2022-12-22T23:00:11.704Z,3.43
2022-12-22T23:02:38.806Z,3.30
2022-12-22T23:05:05.883Z,3.00
2022-12-22T23:07:32.509Z,3.43
2022-12-22T23:09:59.156Z,3.77
2022-12-22T23:12:25.826Z,3.77
2022-12-22T23:14:52.802Z,3.43
2022-12-22T23:17:19.915Z,3.20
2022-12-22T23:19:46.558Z,3.50
2022-12-22T23:22:13.173Z,3.60
2022-12-22T23:24:39.812Z,3.53
2022-12-22T23:27:06.506Z,3.50
2022-12-22T23:29:33.201Z,3.43
2022-12-22T23:31:59.885Z,2.80
2022-12-22T23:34:26.579Z,3.23
2022-12-22T23:36:53.167Z,2.90
2022-12-22T23:39:19.973Z,3.23
2022-12-22T23:41:46.647Z,3.10
2022-12-22T23:44:13.270Z,3.13
2022-12-22T23:46:40.616Z,2.60
2022-12-22T23:49:07.391Z,3.53
2022-12-22T23:51:34.017Z,3.50
2022-12-22T23:54:01.545Z,3.27
2022-12-22T23:56:32.126Z,2.90
2022-12-22T23:58:59.067Z,2.97
